Time;durP1;ratioP1;P1;durP2;ratioP2;P2;SDS_P1;SDS_P2;PMS_P1;PMS_P2;Temp;Humidity;BMP_temperature;BMP_pressure;BME280_temperature;BME280_humidity;BME280_pressure;Samples;Min_cycle;Max_cycle;Signal;HPM_P1;HPM_P2
2022/10/14 00:01:48;;;;;;;10.30;4.87;;;10.80;99.90;;;;;;5043282;23;20155;-69
2022/10/14 00:03:49;;;;;;;7.63;4.40;;;10.80;99.90;;;;;;5043998;23;20298;-69
2022/10/14 00:05:50;;;;;;;7.30;4.87;;;10.90;99.90;;;;;;5043798;23;20190;-69
2022/10/14 00:07:50;;;;;;;5.80;4.10;;;11.00;99.90;;;;;;5043837;23;20319;-69
2022/10/14 00:09:51;;;;;;;6.60;4.37;;;11.00;99.90;;;;;;5043714;23;20174;-69
2022/10/14 00:11:52;;;;;;;8.33;4.23;;;11.00;99.90;;;;;;5042803;23;20535;-70
2022/10/14 00:13:58;;;;;;;7.67;4.53;;;11.00;99.90;;;;;;5043135;23;20647;-68
2022/10/14 00:16:00;;;;;;;5.77;4.23;;;11.00;99.90;;;;;;5043692;23;20708;-68
2022/10/14 00:18:01;;;;;;;10.37;6.27;;;11.10;99.90;;;;;;5043764;23;20164;-69
2022/10/14 00:20:02;;;;;;;6.50;4.53;;;11.10;99.90;;;;;;5043254;23;20700;-69
2022/10/14 00:22:02;;;;;;;7.27;4.30;;;11.10;99.90;;;;;;5042848;23;20209;-69
2022/10/14 00:24:04;;;;;;;10.27;4.43;;;11.10;99.90;;;;;;5043714;23;20279;-69
2022/10/14 00:26:05;;;;;;;7.17;4.70;;;11.10;99.90;;;;;;5043622;23;20628;-69
2022/10/14 00:28:05;;;;;;;7.83;4.30;;;11.00;99.90;;;;;;5044183;23;20504;-69
2022/10/14 00:30:06;;;;;;;7.30;4.80;;;11.00;99.90;;;;;;5043747;23;20167;-69
2022/10/14 00:32:07;;;;;;;9.07;4.80;;;11.00;99.90;;;;;;5042725;23;20609;-69
2022/10/14 00:34:11;;;;;;;8.10;4.90;;;11.00;99.90;;;;;;5067497;23;20225;-68
2022/10/14 00:36:14;;;;;;;8.00;5.90;;;11.10;99.90;;;;;;5067868;23;20182;-70
2022/10/14 00:38:14;;;;;;;10.80;5.87;;;11.10;99.90;;;;;;5068190;23;20162;-69
2022/10/14 00:40:15;;;;;;;11.40;6.33;;;11.10;99.90;;;;;;5067409;23;20612;-69
2022/10/14 00:42:16;;;;;;;13.23;6.10;;;11.00;99.90;;;;;;5068127;23;20181;-69
2022/10/14 00:44:16;;;;;;;9.50;5.87;;;11.00;99.90;;;;;;5068105;23;20631;-69
2022/10/14 00:46:17;;;;;;;12.63;6.43;;;11.00;99.90;;;;;;5068117;23;20542;-69
2022/10/14 00:48:22;;;;;;;9.73;6.30;;;10.90;99.90;;;;;;5042276;23;20185;-69
2022/10/14 00:50:22;;;;;;;7.33;5.40;;;10.90;99.90;;;;;;5067577;23;20188;-69
2022/10/14 00:52:23;;;;;;;11.77;6.53;;;10.80;99.90;;;;;;5018723;23;20172;-69
2022/10/14 00:54:30;;;;;;;23.13;9.63;;;10.90;99.90;;;;;;5068005;23;20185;-69
2022/10/14 00:56:32;;;;;;;14.47;6.90;;;10.80;99.90;;;;;;5067838;23;20170;-69
2022/10/14 00:58:32;;;;;;;12.53;6.00;;;10.80;99.90;;;;;;5067429;23;20263;-69
2022/10/14 01:00:33;;;;;;;9.53;5.67;;;10.80;99.90;;;;;;5066782;23;20163;-68
2022/10/14 01:02:34;;;;;;;10.73;5.30;;;10.80;99.90;;;;;;5067272;23;20245;-69
2022/10/14 01:04:38;;;;;;;12.13;6.53;;;10.90;99.90;;;;;;5041675;23;20234;-69
2022/10/14 01:06:56;;;;;;;13.77;7.10;;;10.90;99.90;;;;;;5067813;23;20650;-69
2022/10/14 01:09:03;;;;;;;13.20;7.07;;;11.00;99.90;;;;;;5041432;23;20163;-69
2022/10/14 01:11:14;;;;;;;13.77;7.10;;;11.10;99.90;;;;;;5066805;23;20503;-69
2022/10/14 01:13:25;;;;;;;15.47;7.80;;;11.10;99.90;;;;;;5067305;23;20204;-70
2022/10/14 01:15:43;;;;;;;14.57;7.77;;;11.10;99.90;;;;;;5041417;23;20209;-69
2022/10/14 01:18:10;;;;;;;15.03;7.90;;;11.10;99.90;;;;;;5067481;23;20493;-69
2022/10/14 01:20:32;;;;;;;15.83;7.47;;;11.00;99.90;;;;;;5066416;23;20167;-71
2022/10/14 01:22:39;;;;;;;11.43;6.17;;;11.00;99.90;;;;;;5067276;23;20171;-69
2022/10/14 01:25:07;;;;;;;11.57;5.80;;;11.00;99.90;;;;;;5066755;23;20640;-69
2022/10/14 01:27:31;;;;;;;10.00;5.47;;;11.00;99.90;;;;;;5067649;23;20178;-69
2022/10/14 01:30:06;;;;;;;11.30;5.77;;;11.10;99.90;;;;;;5040989;23;20505;-70
2022/10/14 01:32:14;;;;;;;9.47;5.10;;;11.10;99.90;;;;;;5066456;23;20160;-69
2022/10/14 01:34:23;;;;;;;12.77;6.03;;;11.10;99.90;;;;;;5067107;23;20180;-69
2022/10/14 01:36:28;;;;;;;9.37;6.00;;;11.10;99.90;;;;;;5067488;23;20257;-69
2022/10/14 01:38:40;;;;;;;10.13;5.20;;;11.10;99.90;;;;;;5067213;23;20155;-69
2022/10/14 01:41:12;;;;;;;9.50;4.90;;;11.10;99.90;;;;;;5040432;23;20210;-69
2022/10/14 01:43:15;;;;;;;9.97;5.10;;;11.00;99.90;;;;;;5067301;23;20151;-69
2022/10/14 01:45:21;;;;;;;9.13;4.73;;;11.10;99.90;;;;;;5067626;23;20265;-70
2022/10/14 01:47:25;;;;;;;7.23;4.50;;;11.10;99.90;;;;;;5066884;23;20647;-69
2022/10/14 01:49:36;;;;;;;7.90;4.53;;;11.10;99.90;;;;;;5066879;23;20256;-69
2022/10/14 01:51:54;;;;;;;7.37;5.13;;;11.10;99.90;;;;;;5066532;23;20147;-69
2022/10/14 01:54:07;;;;;;;7.57;4.67;;;11.10;99.90;;;;;;5067155;23;20190;-69
2022/10/14 01:56:10;;;;;;;8.03;4.20;;;11.10;99.90;;;;;;5067146;23;20217;-68
2022/10/14 01:58:14;;;;;;;6.97;3.50;;;11.10;99.90;;;;;;5066631;23;20173;-69
2022/10/14 02:00:15;;;;;;;5.20;4.00;;;11.20;99.90;;;;;;5066165;23;20159;-69
2022/10/14 02:02:16;;;;;;;6.30;4.27;;;11.20;99.90;;;;;;5066958;23;20527;-69
2022/10/14 02:04:19;;;;;;;6.60;4.10;;;11.20;99.90;;;;;;5061787;23;20166;-69
2022/10/14 02:06:25;;;;;;;7.30;4.20;;;11.20;99.90;;;;;;5066740;23;20672;-70
2022/10/14 02:08:42;;;;;;;6.27;3.70;;;11.20;99.90;;;;;;5066845;23;20198;-69
2022/10/14 02:11:01;;;;;;;5.60;3.67;;;11.30;99.90;;;;;;5066283;23;20230;-69
2022/10/14 02:13:27;;;;;;;5.83;3.67;;;11.30;99.90;;;;;;5066915;23;20161;-69
2022/10/14 02:16:05;;;;;;;6.90;3.67;;;11.20;99.90;;;;;;5067073;23;20194;-68
2022/10/14 02:18:24;;;;;;;5.80;3.90;;;11.20;99.90;;;;;;5066815;23;20923;-68
2022/10/14 02:20:25;;;;;;;4.70;3.67;;;11.20;99.90;;;;;;5065141;23;20150;-68
2022/10/14 02:22:37;;;;;;;7.23;3.63;;;11.10;99.90;;;;;;5066522;23;20249;-68
2022/10/14 02:24:45;;;;;;;8.03;4.03;;;11.20;99.90;;;;;;5067031;23;20143;-68
2022/10/14 02:26:48;;;;;;;4.13;3.30;;;11.20;99.90;;;;;;5067091;23;20498;-68
2022/10/14 02:28:51;;;;;;;5.27;3.50;;;11.20;99.90;;;;;;5067201;23;20158;-69
2022/10/14 02:30:58;;;;;;;5.47;3.60;;;11.20;99.90;;;;;;5066666;23;20173;-69
2022/10/14 02:33:00;;;;;;;6.10;3.80;;;11.20;99.90;;;;;;5066811;23;20443;-69
2022/10/14 02:35:01;;;;;;;5.37;3.67;;;11.20;99.90;;;;;;5066789;23;20640;-68
2022/10/14 02:37:03;;;;;;;6.07;3.70;;;11.20;99.90;;;;;;5067087;23;20172;-68
2022/10/14 02:39:06;;;;;;;6.93;4.03;;;11.20;99.90;;;;;;5041455;23;20643;-68
2022/10/14 02:41:11;;;;;;;5.70;3.67;;;11.10;99.90;;;;;;5066104;23;20217;-69
2022/10/14 02:43:12;;;;;;;5.50;3.43;;;11.10;99.90;;;;;;5066999;23;20158;-68
2022/10/14 02:45:14;;;;;;;5.13;4.03;;;11.20;99.90;;;;;;5066833;23;20212;-69
2022/10/14 02:47:15;;;;;;;4.83;3.90;;;11.10;99.90;;;;;;5067218;23;20162;-69
2022/10/14 02:49:16;;;;;;;7.40;3.70;;;11.10;99.90;;;;;;5066910;23;20162;-68
2022/10/14 02:51:17;;;;;;;4.93;4.10;;;11.10;99.90;;;;;;5040352;23;20560;-69
2022/10/14 02:53:17;;;;;;;5.50;3.80;;;11.10;99.90;;;;;;5066932;23;20163;-68
2022/10/14 02:55:18;;;;;;;6.87;3.73;;;11.10;99.90;;;;;;5066497;23;20198;-70
2022/10/14 02:57:18;;;;;;;7.03;3.57;;;11.10;99.90;;;;;;5066456;23;20154;-69
2022/10/14 02:59:19;;;;;;;6.80;3.70;;;11.10;99.90;;;;;;5066721;23;20166;-67
2022/10/14 03:01:19;;;;;;;5.93;3.83;;;11.10;99.90;;;;;;5065965;23;20241;-69
2022/10/14 03:03:20;;;;;;;6.53;3.97;;;11.10;99.90;;;;;;5040997;23;20163;-69
2022/10/14 03:05:21;;;;;;;7.43;4.60;;;11.00;99.90;;;;;;5066942;23;20823;-69
2022/10/14 03:07:22;;;;;;;8.97;4.70;;;11.00;99.90;;;;;;5066643;23;20162;-69
2022/10/14 03:09:23;;;;;;;9.10;4.87;;;10.90;99.90;;;;;;5066933;23;20245;-69
2022/10/14 03:11:24;;;;;;;9.77;4.57;;;10.80;99.90;;;;;;5065974;23;20158;-70
2022/10/14 03:13:24;;;;;;;8.37;4.27;;;10.90;99.90;;;;;;5066790;23;20245;-69
2022/10/14 03:15:25;;;;;;;5.63;3.77;;;10.90;99.90;;;;;;5066461;23;20273;-69
2022/10/14 03:17:25;;;;;;;8.23;4.53;;;11.00;99.90;;;;;;5041129;23;20167;-69
2022/10/14 03:19:26;;;;;;;7.13;3.83;;;11.00;99.90;;;;;;5066415;23;20241;-69
2022/10/14 03:21:27;;;;;;;7.37;3.93;;;11.10;99.90;;;;;;5065879;23;20154;-70
2022/10/14 03:23:27;;;;;;;9.60;4.17;;;11.10;99.90;;;;;;5066402;23;20158;-68
2022/10/14 03:25:28;;;;;;;9.13;3.70;;;11.10;99.90;;;;;;5066217;23;20186;-69
2022/10/14 03:27:28;;;;;;;6.47;3.70;;;11.20;99.90;;;;;;5066456;23;20166;-69
2022/10/14 03:29:29;;;;;;;6.37;3.73;;;11.20;99.90;;;;;;5041034;23;20234;-68
2022/10/14 03:31:30;;;;;;;10.30;4.10;;;11.20;99.90;;;;;;5065568;23;20167;-69
2022/10/14 03:33:30;;;;;;;4.30;3.87;;;11.00;99.90;;;;;;5066317;23;20178;-68
2022/10/14 03:35:31;;;;;;;6.47;4.00;;;11.00;99.90;;;;;;5040447;23;20289;-69
2022/10/14 03:37:31;;;;;;;8.67;4.53;;;11.00;99.90;;;;;;5066409;23;20628;-68
2022/10/14 03:39:33;;;;;;;8.73;4.07;;;11.10;99.90;;;;;;5066335;23;20592;-69
2022/10/14 03:41:33;;;;;;;8.03;4.00;;;11.10;99.90;;;;;;5065584;23;20635;-69
2022/10/14 03:43:34;;;;;;;7.57;4.53;;;11.20;99.90;;;;;;5066627;23;20249;-69
2022/10/14 03:45:34;;;;;;;5.60;4.37;;;11.20;99.90;;;;;;5066480;23;20193;-69
2022/10/14 03:47:35;;;;;;;8.17;4.27;;;11.10;99.90;;;;;;5040817;23;20641;-68
2022/10/14 03:49:36;;;;;;;7.80;3.80;;;11.10;99.90;;;;;;5042022;23;20171;-69
2022/10/14 03:51:37;;;;;;;5.77;4.03;;;11.10;99.90;;;;;;5067427;23;20615;-69
2022/10/14 03:53:37;;;;;;;7.53;3.60;;;11.10;99.90;;;;;;5068004;23;20194;-69
2022/10/14 03:55:38;;;;;;;5.57;3.33;;;11.20;99.90;;;;;;5068083;23;20577;-68
2022/10/14 03:57:38;;;;;;;7.30;3.63;;;11.20;99.90;;;;;;5068040;23;20184;-68
2022/10/14 03:59:39;;;;;;;5.50;3.20;;;11.30;99.90;;;;;;5067985;23;20169;-69
2022/10/14 04:01:39;;;;;;;6.60;3.43;;;11.30;99.90;;;;;;5041356;23;20660;-69
2022/10/14 04:03:40;;;;;;;9.90;4.63;;;11.30;99.90;;;;;;5067637;23;20611;-68
2022/10/14 04:05:41;;;;;;;8.07;5.20;;;11.30;99.90;;;;;;5067562;23;20175;-69
2022/10/14 04:07:42;;;;;;;8.93;6.70;;;11.20;99.90;;;;;;5067492;23;20158;-68
2022/10/14 04:09:42;;;;;;;9.53;6.67;;;11.10;99.90;;;;;;5067851;23;20159;-69
2022/10/14 04:11:43;;;;;;;10.53;6.57;;;11.10;99.90;;;;;;5066814;23;20481;-69
2022/10/14 04:13:44;;;;;;;7.83;5.37;;;11.10;99.90;;;;;;5067414;23;20205;-69
2022/10/14 04:15:44;;;;;;;7.83;4.90;;;11.20;99.90;;;;;;5041931;23;20218;-68
2022/10/14 04:17:45;;;;;;;9.50;4.37;;;11.20;99.90;;;;;;5067649;23;20185;-69
2022/10/14 04:19:46;;;;;;;6.37;3.93;;;11.20;99.90;;;;;;5067105;23;20158;-68
2022/10/14 04:21:46;;;;;;;7.10;3.87;;;11.30;99.90;;;;;;5066989;23;20159;-68
2022/10/14 04:23:47;;;;;;;6.43;3.70;;;11.30;99.90;;;;;;5067650;23;20194;-69
2022/10/14 04:25:47;;;;;;;5.17;3.33;;;11.20;99.90;;;;;;5041703;23;20547;-69
2022/10/14 04:27:48;;;;;;;5.70;3.27;;;11.20;99.90;;;;;;5067565;23;20154;-68
2022/10/14 04:29:49;;;;;;;3.97;3.30;;;11.20;99.90;;;;;;5067993;23;20196;-69
2022/10/14 04:31:49;;;;;;;5.83;3.57;;;11.20;99.90;;;;;;5067031;23;20163;-69
2022/10/14 04:33:50;;;;;;;5.67;3.70;;;11.20;99.90;;;;;;5067436;23;20177;-69
2022/10/14 04:35:56;;;;;;;6.30;3.77;;;11.30;99.90;;;;;;5068063;23;20265;-68
2022/10/14 04:37:57;;;;;;;5.50;3.50;;;11.30;99.90;;;;;;5068098;23;20154;-70
2022/10/14 04:39:58;;;;;;;7.57;3.80;;;11.20;99.90;;;;;;5067967;23;20182;-70
2022/10/14 04:41:58;;;;;;;8.30;3.77;;;11.20;99.90;;;;;;5067118;23;20250;-68
2022/10/14 04:43:59;;;;;;;6.23;3.83;;;11.30;99.90;;;;;;5067534;23;20969;-68
2022/10/14 04:45:59;;;;;;;6.77;3.83;;;11.20;99.90;;;;;;5067760;23;20174;-69
2022/10/14 04:48:00;;;;;;;7.30;3.50;;;11.20;99.90;;;;;;5067562;23;20165;-68
2022/10/14 04:50:01;;;;;;;6.63;3.73;;;11.20;99.90;;;;;;5042279;23;20230;-69
2022/10/14 04:52:01;;;;;;;5.90;3.17;;;11.10;99.90;;;;;;5067134;23;20159;-68
2022/10/14 04:54:02;;;;;;;5.47;3.13;;;11.10;99.90;;;;;;5067714;23;20209;-69
2022/10/14 04:56:03;;;;;;;4.37;2.87;;;11.10;99.90;;;;;;5067755;23;20182;-69
2022/10/14 04:58:03;;;;;;;5.80;3.10;;;11.10;99.90;;;;;;5067420;23;20165;-69
2022/10/14 05:00:04;;;;;;;4.57;3.20;;;11.10;99.90;;;;;;5067565;23;20155;-69
2022/10/14 05:02:05;;;;;;;5.80;3.13;;;11.20;99.90;;;;;;5066619;23;20159;-69
2022/10/14 05:04:05;;;;;;;6.27;3.53;;;11.20;99.90;;;;;;5067155;23;20487;-68
2022/10/14 05:06:06;;;;;;;5.30;3.33;;;11.20;99.90;;;;;;5067640;23;20213;-68
2022/10/14 05:08:06;;;;;;;8.43;4.33;;;11.30;99.90;;;;;;5067428;23;20162;-70
2022/10/14 05:10:10;;;;;;;5.53;3.97;;;11.30;99.90;;;;;;5067627;23;20166;-69
2022/10/14 05:12:13;;;;;;;6.90;3.90;;;11.30;99.90;;;;;;5067149;23;20170;-69
2022/10/14 05:14:13;;;;;;;6.00;3.50;;;11.30;99.90;;;;;;5067506;23;20183;-69
2022/10/14 05:16:14;;;;;;;5.43;3.70;;;11.20;99.90;;;;;;5067544;23;20189;-68
2022/10/14 05:18:14;;;;;;;5.83;3.53;;;11.20;99.90;;;;;;5067533;23;20159;-69
2022/10/14 05:20:15;;;;;;;5.00;3.13;;;11.20;99.90;;;;;;5066360;23;20158;-68
2022/10/14 05:22:15;;;;;;;5.73;3.07;;;11.10;99.90;;;;;;5067276;23;20158;-69
2022/10/14 05:24:16;;;;;;;8.23;3.83;;;11.10;99.90;;;;;;5067305;23;20170;-69
2022/10/14 05:26:17;;;;;;;6.57;3.03;;;11.10;99.90;;;;;;5067205;23;20284;-69
2022/10/14 05:28:18;;;;;;;5.00;2.83;;;11.10;99.90;;;;;;5067323;23;20189;-69
2022/10/14 05:30:18;;;;;;;5.00;2.80;;;11.00;99.90;;;;;;5066347;23;20551;-69
2022/10/14 05:32:19;;;;;;;3.80;2.87;;;10.90;99.90;;;;;;5066454;23;20166;-69
2022/10/14 05:34:20;;;;;;;4.07;3.13;;;10.90;99.90;;;;;;5041039;23;20686;-69
2022/10/14 05:36:20;;;;;;;4.57;2.67;;;10.90;99.90;;;;;;5067349;23;20182;-68
2022/10/14 05:38:21;;;;;;;4.67;3.13;;;10.90;99.90;;;;;;5067046;23;20254;-69
2022/10/14 05:40:22;;;;;;;5.03;3.00;;;10.90;99.90;;;;;;5066314;23;20159;-68
2022/10/14 05:42:22;;;;;;;4.47;3.07;;;11.00;99.90;;;;;;5067116;23;20236;-68
2022/10/14 05:44:23;;;;;;;8.30;3.33;;;11.10;99.90;;;;;;5067121;23;20178;-69
2022/10/14 05:46:24;;;;;;;5.23;3.00;;;11.10;99.90;;;;;;5066816;23;20186;-69
2022/10/14 05:48:24;;;;;;;5.43;2.93;;;11.10;99.90;;;;;;5066716;23;20232;-68
2022/10/14 05:50:25;;;;;;;4.93;3.50;;;11.10;99.90;;;;;;5066071;23;20684;-69
2022/10/14 05:52:28;;;;;;;6.67;3.50;;;11.00;99.90;;;;;;5066764;23;20277;-69
2022/10/14 05:54:29;;;;;;;6.63;3.97;;;11.00;99.90;;;;;;5066549;23;20205;-70
2022/10/14 05:56:29;;;;;;;9.60;3.77;;;10.90;99.90;;;;;;5066818;23;20958;-69
2022/10/14 05:58:30;;;;;;;3.93;3.20;;;11.00;99.90;;;;;;5066740;23;20530;-68
2022/10/14 06:00:31;;;;;;;5.10;2.90;;;11.10;99.90;;;;;;5066022;23;20170;-70
2022/10/14 06:02:31;;;;;;;5.10;2.70;;;11.10;99.90;;;;;;5066697;23;20539;-68
2022/10/14 06:04:32;;;;;;;4.17;3.03;;;11.10;99.90;;;;;;5066643;23;20604;-68
2022/10/14 06:06:33;;;;;;;9.67;4.60;;;11.10;99.90;;;;;;5066686;23;20510;-69
2022/10/14 06:08:33;;;;;;;9.53;3.50;;;11.20;99.90;;;;;;5066674;23;20162;-69
2022/10/14 06:10:34;;;;;;;5.27;3.43;;;11.30;99.90;;;;;;5065560;23;20859;-69
2022/10/14 06:12:35;;;;;;;4.83;3.10;;;11.30;99.90;;;;;;5066721;23;20170;-69
2022/10/14 06:14:37;;;;;;;5.07;3.03;;;11.30;99.90;;;;;;5040458;23;20187;-69
2022/10/14 06:16:38;;;;;;;6.33;3.50;;;11.40;99.90;;;;;;5067100;23;20158;-69
2022/10/14 06:18:39;;;;;;;2.40;2.10;;;11.50;99.90;;;;;;5066816;23;20159;-68
2022/10/14 06:20:39;;;;;;;5.50;2.70;;;11.50;99.90;;;;;;5065831;23;20158;-70
2022/10/14 06:22:40;;;;;;;4.73;2.70;;;11.50;99.90;;;;;;5066327;23;20173;-69
2022/10/14 06:24:41;;;;;;;5.07;2.80;;;11.40;99.90;;;;;;5066659;23;20241;-68
2022/10/14 06:26:41;;;;;;;3.70;2.70;;;11.40;99.90;;;;;;5066582;23;20166;-69
2022/10/14 06:28:42;;;;;;;5.93;2.87;;;11.40;99.90;;;;;;5066595;23;20166;-68
2022/10/14 06:30:49;;;;;;;6.07;3.00;;;11.40;99.90;;;;;;5065542;23;20166;-69
2022/10/14 06:32:52;;;;;;;6.87;4.30;;;11.40;99.90;;;;;;5066345;23;20674;-68
2022/10/14 06:34:53;;;;;;;7.70;3.50;;;11.50;99.90;;;;;;5066470;23;20194;-69
2022/10/14 06:36:53;;;;;;;4.07;3.13;;;11.50;99.90;;;;;;5066395;23;20241;-69
2022/10/14 06:38:54;;;;;;;5.40;3.60;;;11.50;99.90;;;;;;5066602;23;20471;-70
2022/10/14 06:40:55;;;;;;;6.43;3.53;;;11.60;99.90;;;;;;5065963;23;20281;-68
2022/10/14 06:42:57;;;;;;;5.93;3.30;;;11.60;99.90;;;;;;5066337;23;20158;-70
2022/10/14 06:44:58;;;;;;;5.60;2.83;;;11.60;99.90;;;;;;5066617;23;20182;-68
2022/10/14 06:46:58;;;;;;;4.67;3.30;;;11.70;99.90;;;;;;5066663;23;20547;-69
2022/10/14 06:48:59;;;;;;;7.43;3.53;;;11.70;99.90;;;;;;5066342;23;20166;-69
2022/10/14 06:51:01;;;;;;;5.97;3.37;;;11.70;99.90;;;;;;5065606;23;20177;-68
2022/10/14 06:53:02;;;;;;;6.00;3.03;;;11.70;99.90;;;;;;5066549;23;20512;-69
2022/10/14 06:55:02;;;;;;;4.93;2.63;;;11.90;99.90;;;;;;5066456;23;20197;-68
2022/10/14 06:57:03;;;;;;;5.60;2.90;;;11.90;99.90;;;;;;5066344;23;20505;-69
2022/10/14 06:59:04;;;;;;;8.37;4.03;;;11.90;99.90;;;;;;5066419;23;20220;-68
2022/10/14 07:01:06;;;;;;;6.03;2.90;;;11.80;99.90;;;;;;5065611;23;20162;-69
2022/10/14 07:03:07;;;;;;;6.60;3.37;;;11.80;99.90;;;;;;5066261;23;20166;-69
2022/10/14 07:05:08;;;;;;;7.00;3.70;;;11.80;99.90;;;;;;5066364;23;20706;-69
2022/10/14 07:07:09;;;;;;;6.73;3.43;;;11.80;99.90;;;;;;5066602;23;20169;-68
2022/10/14 07:09:10;;;;;;;5.77;4.00;;;11.90;99.90;;;;;;5066468;23;20192;-69
2022/10/14 07:11:10;;;;;;;5.83;3.50;;;11.90;99.90;;;;;;5039950;23;20171;-69
2022/10/14 07:13:11;;;;;;;7.47;3.60;;;12.00;99.90;;;;;;5066535;23;20166;-69
2022/10/14 07:15:11;;;;;;;4.80;3.57;;;11.90;99.90;;;;;;5066392;23;20198;-69
2022/10/14 07:17:12;;;;;;;7.27;4.37;;;11.90;99.90;;;;;;5066438;23;20162;-68
2022/10/14 07:19:12;;;;;;;4.97;3.70;;;11.90;99.90;;;;;;5066313;23;20214;-68
2022/10/14 07:21:13;;;;;;;6.43;4.00;;;12.00;99.90;;;;;;5065998;23;20166;-69
2022/10/14 07:23:14;;;;;;;6.00;3.37;;;12.10;99.90;;;;;;5067074;23;20244;-69
2022/10/14 07:25:14;;;;;;;4.80;3.57;;;12.20;99.90;;;;;;5068033;23;20553;-69
2022/10/14 07:27:15;;;;;;;7.00;3.37;;;12.30;99.90;;;;;;5067862;23;20651;-69
2022/10/14 07:29:16;;;;;;;6.03;3.03;;;12.30;99.90;;;;;;5068080;23;20162;-69
2022/10/14 07:31:17;;;;;;;5.23;3.17;;;12.50;99.90;;;;;;5067310;23;20189;-69
2022/10/14 07:33:17;;;;;;;4.63;2.90;;;12.60;99.90;;;;;;5067625;23;20209;-71
2022/10/14 07:35:18;;;;;;;2.83;2.50;;;12.70;99.90;;;;;;5067637;23;20656;-69
2022/10/14 07:37:19;;;;;;;5.33;2.83;;;12.90;99.90;;;;;;5067833;23;20605;-69
2022/10/14 07:39:19;;;;;;;4.50;2.60;;;12.90;99.90;;;;;;5067901;23;20616;-70
2022/10/14 07:41:23;;;;;;;4.93;2.60;;;13.10;99.90;;;;;;5066912;23;20166;-69
2022/10/14 07:43:23;;;;;;;5.90;3.20;;;13.20;99.90;;;;;;5067874;23;20553;-70
2022/10/14 07:45:24;;;;;;;6.23;3.30;;;13.20;99.90;;;;;;5067773;23;20178;-69
2022/10/14 07:47:25;;;;;;;4.07;2.57;;;13.30;99.90;;;;;;5067770;23;20186;-69
2022/10/14 07:49:25;;;;;;;5.00;3.33;;;13.40;99.90;;;;;;5042042;23;20668;-69
2022/10/14 07:51:26;;;;;;;4.73;3.67;;;13.40;99.90;;;;;;5067003;23;20613;-69
2022/10/14 07:53:27;;;;;;;5.10;3.40;;;13.30;99.90;;;;;;5068155;23;20265;-69
2022/10/14 07:55:28;;;;;;;6.93;4.20;;;13.20;99.90;;;;;;5067721;23;20285;-70
2022/10/14 07:57:28;;;;;;;8.23;4.00;;;13.40;99.90;;;;;;5067681;23;20194;-70
2022/10/14 07:59:29;;;;;;;8.73;3.97;;;13.30;99.90;;;;;;5067871;23;20162;-70
2022/10/14 08:01:29;;;;;;;5.20;3.80;;;13.20;99.90;;;;;;5067383;23;20554;-69
2022/10/14 08:03:30;;;;;;;5.93;3.57;;;13.10;99.90;;;;;;5068119;23;20552;-68
2022/10/14 08:05:31;;;;;;;7.10;4.27;;;13.30;99.90;;;;;;5068103;23;20189;-68
2022/10/14 08:07:32;;;;;;;7.33;4.40;;;13.30;99.90;;;;;;5067606;23;20158;-68
2022/10/14 08:09:35;;;;;;;5.60;3.57;;;13.30;99.90;;;;;;5068233;23;20507;-69
2022/10/14 08:11:36;;;;;;;7.90;4.67;;;13.40;99.90;;;;;;5067125;23;20158;-69
2022/10/14 08:13:38;;;;;;;5.77;4.40;;;13.30;99.90;;;;;;5067835;23;20158;-68
2022/10/14 08:15:42;;;;;;;7.07;4.00;;;13.20;99.90;;;;;;5041407;23;20664;-69
2022/10/14 08:17:42;;;;;;;6.53;4.17;;;13.20;99.90;;;;;;5042013;23;20167;-69
2022/10/14 08:19:43;;;;;;;7.17;4.17;;;13.20;99.90;;;;;;5066328;23;20165;-69
2022/10/14 08:21:44;;;;;;;5.67;3.80;;;13.00;99.90;;;;;;5065457;23;20158;-68
2022/10/14 08:23:44;;;;;;;6.33;3.73;;;13.00;99.90;;;;;;5065751;23;20173;-70
2022/10/14 08:25:47;;;;;;;7.10;4.23;;;13.20;99.90;;;;;;5066196;23;20273;-70
2022/10/14 08:27:50;;;;;;;11.17;6.20;;;13.50;99.90;;;;;;5067418;23;20166;-69
2022/10/14 08:29:50;;;;;;;24.53;12.00;;;13.60;99.90;;;;;;5041580;23;20171;-70
2022/10/14 08:31:53;;;;;;;19.20;11.93;;;13.50;99.90;;;;;;5040816;23;20266;-69
2022/10/14 08:33:53;;;;;;;8.53;4.67;;;13.60;99.90;;;;;;5066800;23;20566;-70
2022/10/14 08:35:54;;;;;;;6.63;4.00;;;13.60;99.90;;;;;;5067442;23;20261;-69
2022/10/14 08:37:59;;;;;;;6.70;4.63;;;13.80;99.90;;;;;;5067414;23;20158;-69
2022/10/14 08:39:59;;;;;;;5.93;4.37;;;13.80;99.90;;;;;;5041705;23;20177;-69
2022/10/14 08:42:22;;;;;;;6.03;4.00;;;13.60;99.90;;;;;;5066494;23;20190;-71
2022/10/14 08:44:26;;;;;;;6.97;4.17;;;13.60;99.90;;;;;;5067203;23;20217;-69
2022/10/14 08:46:33;;;;;;;4.90;3.90;;;13.60;99.90;;;;;;5041430;23;20183;-69
2022/10/14 08:48:35;;;;;;;5.10;3.53;;;13.70;99.90;;;;;;5067500;23;20153;-68
2022/10/14 08:50:45;;;;;;;5.13;3.23;;;13.80;99.90;;;;;;5041020;23;20258;-69
2022/10/14 08:52:56;;;;;;;6.03;4.43;;;14.00;99.90;;;;;;5067292;23;20178;-68
2022/10/14 08:55:02;;;;;;;8.10;4.27;;;13.90;99.90;;;;;;5067258;23;20193;-69
2022/10/14 08:57:10;;;;;;;5.30;4.00;;;13.90;99.90;;;;;;5067394;23;20143;-70
2022/10/14 08:59:19;;;;;;;3.90;2.70;;;13.70;99.90;;;;;;5067401;23;20150;-69
2022/10/14 09:01:32;;;;;;;4.13;2.87;;;13.50;99.90;;;;;;5066632;23;20600;-68
2022/10/14 09:03:33;;;;;;;5.10;3.53;;;13.60;99.90;;;;;;5067282;23;20158;-70
2022/10/14 09:05:35;;;;;;;4.20;2.97;;;13.40;99.90;;;;;;5041496;23;20197;-70
2022/10/14 09:07:36;;;;;;;5.27;3.30;;;13.50;99.90;;;;;;5067288;23;20170;-69
2022/10/14 09:09:42;;;;;;;7.30;3.70;;;13.40;99.90;;;;;;5067580;23;20166;-69
2022/10/14 09:11:44;;;;;;;3.73;3.20;;;13.50;99.90;;;;;;5066691;23;20184;-70
2022/10/14 09:13:53;;;;;;;5.00;3.53;;;13.70;99.90;;;;;;5067259;23;20166;-70
2022/10/14 09:16:00;;;;;;;5.20;3.03;;;13.50;99.90;;;;;;5067619;23;20190;-70
2022/10/14 09:18:05;;;;;;;5.00;2.93;;;13.50;99.90;;;;;;5067186;23;20190;-70
2022/10/14 09:20:14;;;;;;;4.10;3.37;;;13.60;99.90;;;;;;5066997;23;20304;-70
2022/10/14 09:22:15;;;;;;;7.77;3.77;;;13.70;99.90;;;;;;5067202;23;20220;-69
2022/10/14 09:24:34;;;;;;;5.47;3.30;;;13.80;99.90;;;;;;5067323;23;20161;-70
2022/10/14 09:26:44;;;;;;;7.80;3.67;;;13.80;99.90;;;;;;5067190;23;20138;-68
2022/10/14 09:28:47;;;;;;;3.63;3.30;;;13.90;99.90;;;;;;5067053;23;20197;-69
2022/10/14 09:30:48;;;;;;;4.47;2.90;;;13.70;99.90;;;;;;5066187;23;20269;-68
2022/10/14 09:32:53;;;;;;;4.30;3.27;;;13.80;99.90;;;;;;5041143;23;20171;-69
2022/10/14 09:34:55;;;;;;;4.50;3.53;;;13.90;99.90;;;;;;5042828;23;20194;-69
2022/10/14 09:37:00;;;;;;;5.97;3.13;;;14.00;99.90;;;;;;5041643;23;20164;-68
2022/10/14 09:39:01;;;;;;;5.80;3.63;;;14.00;99.90;;;;;;5043344;23;20167;-68
2022/10/14 09:41:02;;;;;;;6.53;3.17;;;13.90;99.90;;;;;;5041742;23;20159;-68
2022/10/14 09:43:08;;;;;;;4.23;2.90;;;13.80;99.90;;;;;;5042783;23;20636;-69
2022/10/14 09:45:15;;;;;;;5.07;3.07;;;13.60;99.90;;;;;;5042429;23;20254;-68
2022/10/14 09:47:18;;;;;;;5.37;3.60;;;13.70;99.90;;;;;;5042515;23;20287;-68
2022/10/14 09:49:26;;;;;;;6.20;3.60;;;13.80;99.90;;;;;;5042646;23;20609;-69
2022/10/14 09:51:34;;;;;;;3.63;2.67;;;13.70;99.90;;;;;;5041857;23;20151;-69
2022/10/14 09:53:47;;;;;;;3.23;2.60;;;13.80;99.90;;;;;;5042765;23;20185;-69
2022/10/14 09:55:53;;;;;;;4.83;2.67;;;13.90;99.90;;;;;;5042437;23;20199;-68
2022/10/14 09:58:02;;;;;;;3.17;2.53;;;13.70;99.90;;;;;;5042831;23;20637;-69
2022/10/14 10:00:05;;;;;;;6.27;3.70;;;13.60;99.90;;;;;;5041012;23;20242;-68
2022/10/14 10:02:20;;;;;;;4.13;2.70;;;13.70;99.90;;;;;;5041690;23;20162;-68
2022/10/14 10:04:41;;;;;;;3.97;2.63;;;13.70;99.90;;;;;;5040770;23;20163;-69
2022/10/14 10:06:53;;;;;;;4.23;3.33;;;13.80;99.90;;;;;;5042849;23;20160;-69
2022/10/14 10:08:54;;;;;;;3.80;2.83;;;13.80;99.90;;;;;;5042534;23;20225;-70
2022/10/14 10:11:04;;;;;;;2.97;2.43;;;14.00;99.90;;;;;;5041623;23;20167;-69
2022/10/14 10:13:21;;;;;;;3.87;2.70;;;13.90;99.90;;;;;;5042496;23;20230;-69
2022/10/14 10:15:21;;;;;;;7.40;3.30;;;13.90;99.90;;;;;;5042726;23;20290;-69
2022/10/14 10:17:22;;;;;;;3.93;2.90;;;14.00;99.90;;;;;;5042478;23;20621;-69
2022/10/14 10:19:26;;;;;;;6.20;3.53;;;14.00;99.90;;;;;;5042323;23;20155;-69
2022/10/14 10:21:31;;;;;;;4.00;3.20;;;14.00;99.90;;;;;;5041417;23;20770;-68
2022/10/14 10:23:35;;;;;;;3.90;2.80;;;14.10;99.90;;;;;;5042583;23;20139;-69
2022/10/14 10:25:36;;;;;;;3.00;2.67;;;14.30;99.90;;;;;;5042381;23;20551;-69
2022/10/14 10:27:47;;;;;;;2.30;2.10;;;14.40;99.90;;;;;;5042402;23;20199;-69
2022/10/14 10:29:48;;;;;;;5.33;2.60;;;14.20;99.90;;;;;;5042416;23;20147;-69
2022/10/14 10:32:05;;;;;;;4.50;2.43;;;14.10;99.90;;;;;;5040142;23;20203;-69
2022/10/14 10:34:29;;;;;;;2.90;2.00;;;14.10;99.90;;;;;;5065887;23;20170;-69
2022/10/14 10:36:40;;;;;;;3.77;2.03;;;14.00;99.90;;;;;;5066767;23;20640;-69
2022/10/14 10:39:12;;;;;;;2.13;1.90;;;14.10;99.90;;;;;;5066811;23;20245;-69
2022/10/14 10:41:47;;;;;;;3.30;2.03;;;14.10;99.90;;;;;;5001415;23;20161;-69
2022/10/14 10:44:12;;;;;;;2.90;2.60;;;14.10;99.90;;;;;;5066764;23;20150;-70